createdAt,value
2023-02-23T00:01:44.647Z,17.15
2023-02-23T00:04:15.387Z,17.12
2023-02-23T00:06:46.681Z,16.55
2023-02-23T00:09:18.848Z,15.78
2023-02-23T00:11:50.168Z,16.05
2023-02-23T00:14:21.162Z,14.93
2023-02-23T00:16:52.328Z,16.30
2023-02-23T00:19:25.324Z,16.12
2023-02-23T00:21:58.964Z,16.65
2023-02-23T00:24:30.216Z,16.32
2023-02-23T00:27:02.435Z,15.88
2023-02-23T00:29:34.735Z,17.87
2023-02-23T00:32:05.484Z,15.45
2023-02-23T00:34:37.211Z,18.15
2023-02-23T00:37:09.083Z,16.95
2023-02-23T00:39:40.090Z,14.98
2023-02-23T00:42:10.655Z,15.05
2023-02-23T00:44:44.512Z,16.82
2023-02-23T00:47:15.826Z,16.37
2023-02-23T00:49:46.825Z,16.82
2023-02-23T00:52:17.408Z,15.78
2023-02-23T00:54:48.081Z,16.60
2023-02-23T00:57:19.786Z,16.32
2023-02-23T00:59:50.945Z,15.63
2023-02-23T01:02:22.660Z,17.98
2023-02-23T01:05:01.157Z,16.60
2023-02-23T01:07:31.846Z,16.02
2023-02-23T01:10:03.809Z,16.57
2023-02-23T01:12:34.428Z,15.65
2023-02-23T01:15:06.652Z,15.58
2023-02-23T01:17:37.303Z,16.20
2023-02-23T01:20:12.586Z,17.57
2023-02-23T01:22:43.946Z,16.77
2023-02-23T01:25:14.824Z,15.83
2023-02-23T01:27:45.995Z,17.82
2023-02-23T01:30:18.078Z,14.90
2023-02-23T01:32:49.352Z,16.90
2023-02-23T01:35:20.500Z,16.27
2023-02-23T01:37:51.273Z,16.93
2023-02-23T01:40:30.941Z,17.27
2023-02-23T01:43:16.938Z,15.50
2023-02-23T01:45:48.244Z,16.32
2023-02-23T01:48:24.779Z,16.77
2023-02-23T01:51:18.717Z,15.32
2023-02-23T01:53:54.153Z,17.05
2023-02-23T01:56:27.615Z,16.82
2023-02-23T01:59:01.760Z,17.52
2023-02-23T02:01:32.463Z,18.02
2023-02-23T02:04:06.867Z,18.10
2023-02-23T02:06:40.491Z,18.60
2023-02-23T02:09:15.854Z,18.45
2023-02-23T02:11:49.486Z,18.55
2023-02-23T02:14:29.287Z,17.37
2023-02-23T02:17:05.877Z,16.67
2023-02-23T02:19:45.790Z,16.45
2023-02-23T02:22:26.042Z,18.42
2023-02-23T02:25:18.143Z,17.07
2023-02-23T02:28:08.992Z,17.80
2023-02-23T02:31:02.257Z,17.27
2023-02-23T02:33:37.659Z,19.00
2023-02-23T02:36:39.092Z,16.55
2023-02-23T02:39:46.144Z,16.97
2023-02-23T02:42:26.063Z,14.93
2023-02-23T02:45:04.194Z,15.70
2023-02-23T02:47:37.827Z,16.02
2023-02-23T02:50:20.447Z,16.20
2023-02-23T02:52:57.030Z,16.05
2023-02-23T02:55:32.134Z,15.38
2023-02-23T02:58:06.824Z,16.02
2023-02-23T03:00:59.662Z,16.65
2023-02-23T03:04:00.640Z,15.88
2023-02-23T03:07:04.041Z,16.35
2023-02-23T03:13:06.342Z,15.72
2023-02-23T03:16:12.846Z,14.60
2023-02-23T03:22:24.851Z,14.73
2023-02-23T03:25:31.406Z,13.98
2023-02-23T03:31:50.199Z,12.68
2023-02-23T03:34:53.583Z,15.32
2023-02-23T03:37:48.052Z,13.50
2023-02-23T03:40:43.323Z,13.93
2023-02-23T03:43:34.671Z,13.22
2023-02-23T03:46:27.619Z,13.55
2023-02-23T03:49:20.824Z,12.90
2023-02-23T03:52:11.989Z,12.05
2023-02-23T03:55:03.298Z,12.30
2023-02-23T03:57:54.471Z,13.00
2023-02-23T04:00:48.055Z,11.83
2023-02-23T04:03:39.757Z,12.30
2023-02-23T04:06:32.333Z,12.00
2023-02-23T04:09:23.433Z,12.03
2023-02-23T04:12:26.804Z,12.07
2023-02-23T04:15:02.359Z,11.60
2023-02-23T04:17:33.306Z,12.13
2023-02-23T04:20:12.331Z,12.78
2023-02-23T04:22:42.901Z,12.25
2023-02-23T04:25:17.321Z,10.88
2023-02-23T04:27:48.386Z,11.38
2023-02-23T04:30:20.832Z,13.13
2023-02-23T04:32:51.416Z,13.28
2023-02-23T04:35:22.447Z,11.70
2023-02-23T04:37:55.967Z,11.60
2023-02-23T04:40:29.048Z,10.32
2023-02-23T04:42:59.957Z,12.03
2023-02-23T04:45:31.718Z,11.03
2023-02-23T04:48:02.619Z,10.82
2023-02-23T04:50:33.583Z,10.65
2023-02-23T04:53:05.811Z,10.23
2023-02-23T04:55:36.506Z,12.45
2023-02-23T04:58:08.364Z,12.63
2023-02-23T05:00:39.657Z,11.55
2023-02-23T05:03:10.954Z,12.55
2023-02-23T05:05:41.638Z,12.00
2023-02-23T05:08:12.226Z,11.73
2023-02-23T05:10:42.796Z,11.45
2023-02-23T05:13:15.008Z,11.28
2023-02-23T05:15:47.727Z,11.70
2023-02-23T05:18:18.327Z,11.75
2023-02-23T05:20:50.196Z,11.70
2023-02-23T05:23:22.146Z,12.90
2023-02-23T05:25:53.004Z,12.33
2023-02-23T05:28:23.872Z,13.55
2023-02-23T05:30:54.520Z,14.05
2023-02-23T05:33:25.338Z,12.68
2023-02-23T05:35:55.914Z,13.08
2023-02-23T05:38:27.722Z,14.05
2023-02-23T05:40:58.985Z,11.93
2023-02-23T05:43:29.562Z,13.10
2023-02-23T05:46:03.525Z,11.57
2023-02-23T05:48:42.430Z,12.20
2023-02-23T05:51:14.805Z,13.60
2023-02-23T05:53:49.753Z,12.85
2023-02-23T05:56:27.423Z,13.85
2023-02-23T05:59:10.794Z,14.60
2023-02-23T06:01:46.926Z,12.65
2023-02-23T06:04:22.360Z,13.98
2023-02-23T06:06:57.171Z,12.98
2023-02-23T06:09:44.110Z,13.15
2023-02-23T06:12:15.797Z,13.62
2023-02-23T06:14:46.752Z,14.35
2023-02-23T06:17:22.346Z,13.55
2023-02-23T06:19:56.497Z,13.88
2023-02-23T06:25:09.380Z,13.53
2023-02-23T06:27:46.511Z,13.70
2023-02-23T06:32:52.635Z,14.13
2023-02-23T06:35:25.392Z,14.40
2023-02-23T06:38:03.763Z,15.08
2023-02-23T06:40:42.640Z,14.43
2023-02-23T06:43:23.249Z,13.58
2023-02-23T06:45:58.793Z,13.93
2023-02-23T06:48:30.689Z,14.30
2023-02-23T06:51:10.133Z,14.78
2023-02-23T06:53:45.024Z,17.05
2023-02-23T06:56:17.922Z,16.37
2023-02-23T06:58:52.055Z,16.62
2023-02-23T07:01:25.924Z,15.85
2023-02-23T07:04:03.041Z,16.77
2023-02-23T07:06:42.451Z,20.20
2023-02-23T07:09:22.047Z,18.85
2023-02-23T07:11:55.645Z,18.37
2023-02-23T07:14:30.065Z,18.90
2023-02-23T07:17:21.321Z,18.12
2023-02-23T07:19:55.558Z,18.23
2023-02-23T07:22:32.750Z,16.75
2023-02-23T07:25:05.325Z,19.65
2023-02-23T07:27:37.626Z,19.20
2023-02-23T07:30:11.690Z,17.30
2023-02-23T07:32:44.076Z,19.73
2023-02-23T07:35:15.639Z,16.27
2023-02-23T07:37:51.897Z,19.32
2023-02-23T07:40:25.080Z,19.00
2023-02-23T07:43:03.391Z,20.48
2023-02-23T07:45:39.482Z,17.60
2023-02-23T07:48:17.190Z,17.75
2023-02-23T07:50:57.548Z,18.48
2023-02-23T07:53:29.209Z,17.73
2023-02-23T07:56:03.238Z,19.60
2023-02-23T07:58:38.133Z,18.42
2023-02-23T08:06:42.651Z,19.48
2023-02-23T08:09:17.041Z,17.30
2023-02-23T08:11:49.352Z,18.92
2023-02-23T08:14:23.612Z,18.02
2023-02-23T08:16:56.006Z,17.73
2023-02-23T08:19:31.279Z,19.60
2023-02-23T08:22:10.001Z,22.15
2023-02-23T08:24:45.155Z,18.95
2023-02-23T08:27:18.481Z,23.12
2023-02-23T08:29:56.027Z,23.92
2023-02-23T08:32:27.995Z,26.05
2023-02-23T08:35:01.899Z,21.42
2023-02-23T08:37:36.019Z,23.27
2023-02-23T08:40:14.814Z,22.67
2023-02-23T08:42:50.114Z,20.92
2023-02-23T08:45:24.621Z,22.52
2023-02-23T08:47:57.274Z,23.60
2023-02-23T08:50:31.192Z,19.45
2023-02-23T08:53:02.803Z,20.52
2023-02-23T08:55:34.931Z,23.35
2023-02-23T08:58:06.896Z,20.62
2023-02-23T09:00:38.352Z,22.73
2023-02-23T09:03:09.033Z,25.00
2023-02-23T09:05:39.887Z,23.18
2023-02-23T09:08:10.656Z,24.87
2023-02-23T09:10:43.515Z,21.97
2023-02-23T09:13:14.569Z,22.42
2023-02-23T09:15:45.186Z,20.77
2023-02-23T09:18:17.633Z,22.77
2023-02-23T09:20:48.317Z,21.42
2023-02-23T09:23:18.938Z,22.77
2023-02-23T09:25:49.518Z,21.77
2023-02-23T09:28:21.679Z,22.37
2023-02-23T09:30:52.276Z,21.95
2023-02-23T09:33:22.891Z,20.57
2023-02-23T09:35:53.580Z,23.18
2023-02-23T09:38:24.860Z,21.62
2023-02-23T09:40:56.604Z,22.98
2023-02-23T09:43:45.248Z,21.15
2023-02-23T09:46:38.508Z,20.77
2023-02-23T09:49:13.564Z,19.12
2023-02-23T09:51:48.658Z,21.55
2023-02-23T09:54:21.133Z,18.15
2023-02-23T09:56:56.400Z,21.57
2023-02-23T09:59:29.047Z,18.62
2023-02-23T10:02:05.348Z,18.32
2023-02-23T10:04:42.692Z,18.85
2023-02-23T10:07:31.237Z,21.95
2023-02-23T10:10:10.603Z,19.98
2023-02-23T10:12:45.393Z,18.17
2023-02-23T10:15:34.037Z,20.02
2023-02-23T10:18:45.646Z,16.57
2023-02-23T10:21:10.801Z,18.37
2023-02-23T10:23:53.594Z,19.27
2023-02-23T10:26:28.148Z,18.10
2023-02-23T10:29:00.525Z,21.20
2023-02-23T10:31:37.522Z,25.37
2023-02-23T10:34:13.784Z,23.42
2023-02-23T10:37:05.066Z,19.65
2023-02-23T10:39:36.002Z,19.30
2023-02-23T10:42:12.188Z,18.92
2023-02-23T10:44:47.574Z,21.70
2023-02-23T10:49:55.189Z,19.50
2023-02-23T10:52:32.988Z,19.50
2023-02-23T10:55:10.830Z,19.77
2023-02-23T10:57:41.526Z,19.02
2023-02-23T11:00:21.718Z,19.62
2023-02-23T11:02:52.295Z,18.07
2023-02-23T11:05:35.475Z,17.37
2023-02-23T11:08:27.351Z,21.45
2023-02-23T11:11:04.169Z,19.90
2023-02-23T11:13:44.509Z,18.42
2023-02-23T11:16:25.555Z,19.65
2023-02-23T11:19:01.943Z,19.75
2023-02-23T11:21:38.800Z,18.77
2023-02-23T11:24:31.595Z,19.55
2023-02-23T11:27:07.043Z,19.50
2023-02-23T11:29:48.021Z,18.07
2023-02-23T11:32:33.394Z,19.25
2023-02-23T11:35:26.534Z,21.15
2023-02-23T11:37:57.796Z,20.12
2023-02-23T11:40:35.093Z,19.20
2023-02-23T11:43:10.897Z,21.97
2023-02-23T11:45:57.418Z,19.55
2023-02-23T11:48:30.904Z,19.48
2023-02-23T11:51:02.335Z,19.23
2023-02-23T11:53:43.917Z,19.27
2023-02-23T11:56:17.661Z,21.80
2023-02-23T11:58:54.060Z,19.65
2023-02-23T12:01:45.480Z,19.52
2023-02-23T12:04:29.860Z,19.30
2023-02-23T12:07:26.021Z,19.00
2023-02-23T12:12:44.077Z,21.05
2023-02-23T12:15:18.781Z,20.10
2023-02-23T12:17:52.217Z,19.48
2023-02-23T12:20:29.010Z,20.85
2023-02-23T12:23:02.521Z,22.22
2023-02-23T12:25:56.152Z,16.40
2023-02-23T12:28:36.535Z,22.27
2023-02-23T12:31:26.463Z,22.32
2023-02-23T12:34:05.964Z,20.85
2023-02-23T12:36:42.858Z,20.25
2023-02-23T12:39:24.885Z,21.27
2023-02-23T12:41:59.585Z,21.82
2023-02-23T12:44:44.850Z,22.13
2023-02-23T12:47:18.280Z,21.15
2023-02-23T12:49:54.520Z,21.52
2023-02-23T12:52:28.197Z,24.98
2023-02-23T12:54:58.933Z,19.87
2023-02-23T12:57:39.494Z,23.95
2023-02-23T13:00:26.792Z,22.42
2023-02-23T13:03:26.063Z,23.02
2023-02-23T13:06:14.769Z,23.50
2023-02-23T13:09:03.579Z,23.15
2023-02-23T13:12:09.148Z,20.72
2023-02-23T13:15:04.095Z,22.73
2023-02-23T13:17:44.004Z,23.55
2023-02-23T13:20:33.780Z,20.72
2023-02-23T13:23:11.309Z,25.65
2023-02-23T13:26:07.608Z,25.35
2023-02-23T13:28:43.995Z,23.73
2023-02-23T13:31:30.811Z,26.65
2023-02-23T13:34:04.036Z,26.85
2023-02-23T13:36:36.978Z,24.95
2023-02-23T13:39:25.391Z,25.02
2023-02-23T13:42:15.091Z,21.12
2023-02-23T13:44:57.366Z,23.25
2023-02-23T13:47:55.829Z,27.02
2023-02-23T13:50:38.053Z,27.42
2023-02-23T13:53:11.094Z,27.95
2023-02-23T13:55:49.989Z,27.52
2023-02-23T13:58:23.171Z,26.12
2023-02-23T14:01:08.124Z,28.15
2023-02-23T14:03:59.004Z,31.60
2023-02-23T14:06:32.945Z,29.57
2023-02-23T14:09:22.943Z,27.58
2023-02-23T14:11:57.665Z,28.83
2023-02-23T14:14:37.645Z,30.85
2023-02-23T14:17:13.113Z,28.95
2023-02-23T14:19:45.472Z,29.52
2023-02-23T14:22:22.296Z,27.95
2023-02-23T14:25:29.468Z,33.90
2023-02-23T14:28:19.431Z,30.57
2023-02-23T14:31:02.109Z,27.60
2023-02-23T14:33:49.941Z,31.55
2023-02-23T14:36:30.393Z,36.15
2023-02-23T14:39:15.632Z,37.93
2023-02-23T14:42:04.529Z,33.38
2023-02-23T14:44:41.496Z,33.92
2023-02-23T14:47:20.587Z,32.45
2023-02-23T14:50:00.072Z,26.48
2023-02-23T14:52:33.551Z,28.70
2023-02-23T14:55:15.912Z,33.33
2023-02-23T14:57:46.521Z,34.20
2023-02-23T15:00:24.447Z,30.27
2023-02-23T15:03:00.659Z,37.35
2023-02-23T15:05:47.498Z,42.03
2023-02-23T15:08:20.635Z,48.87
2023-02-23T15:11:02.848Z,40.65
2023-02-23T15:13:39.305Z,31.37
2023-02-23T15:16:13.170Z,33.92
2023-02-23T15:18:46.214Z,28.87
2023-02-23T15:21:22.936Z,31.45
2023-02-23T15:24:02.413Z,27.67
2023-02-23T15:26:35.330Z,26.27
2023-02-23T15:29:15.010Z,33.48
2023-02-23T15:31:52.854Z,30.50
2023-02-23T15:34:30.667Z,34.58
2023-02-23T15:37:07.847Z,32.40
2023-02-23T15:39:52.128Z,28.20
2023-02-23T15:42:40.612Z,25.92
2023-02-23T15:45:16.866Z,27.10
2023-02-23T15:47:47.947Z,27.00
2023-02-23T15:50:35.900Z,28.35
2023-02-23T15:52:57.034Z,26.73
2023-02-23T15:55:36.854Z,30.97
2023-02-23T15:58:23.661Z,29.87
2023-02-23T16:01:15.703Z,31.95
2023-02-23T16:03:49.202Z,33.23
2023-02-23T16:06:29.388Z,35.33
2023-02-23T16:09:22.255Z,33.33
2023-02-23T16:12:05.213Z,35.78
2023-02-23T16:14:47.801Z,35.73
2023-02-23T16:17:51.354Z,31.52
2023-02-23T16:20:26.021Z,33.00
2023-02-23T16:22:58.601Z,29.82
2023-02-23T16:25:32.712Z,30.45
2023-02-23T16:28:13.015Z,32.03
2023-02-23T16:30:49.396Z,33.02
2023-02-23T16:33:31.649Z,30.80
2023-02-23T16:36:18.974Z,35.03
2023-02-23T16:39:01.426Z,39.13
2023-02-23T16:41:36.479Z,43.75
2023-02-23T16:44:15.479Z,42.60
2023-02-23T16:47:07.008Z,41.08
2023-02-23T16:49:44.288Z,47.53
2023-02-23T16:52:28.210Z,51.00
2023-02-23T16:55:03.066Z,43.85
2023-02-23T16:57:40.797Z,48.20
2023-02-23T17:00:20.110Z,51.30
2023-02-23T17:02:53.945Z,56.28
2023-02-23T17:05:28.291Z,53.63
2023-02-23T17:08:01.769Z,53.13
2023-02-23T17:10:37.659Z,48.55
2023-02-23T17:13:12.622Z,40.90
2023-02-23T17:15:49.371Z,40.73
2023-02-23T17:21:00.972Z,37.48
2023-02-23T17:23:41.773Z,38.15
2023-02-23T17:26:23.278Z,39.63
2023-02-23T17:28:55.486Z,38.05
2023-02-23T17:31:30.204Z,37.95
2023-02-23T17:34:03.344Z,39.08
2023-02-23T17:36:43.736Z,38.95
2023-02-23T17:39:17.121Z,37.25
2023-02-23T17:41:48.562Z,35.95
2023-02-23T17:44:21.920Z,40.17
2023-02-23T17:47:02.176Z,36.63
2023-02-23T17:49:34.393Z,37.05
2023-02-23T17:52:07.547Z,34.40
2023-02-23T17:54:45.086Z,31.35
2023-02-23T17:57:20.140Z,36.77
2023-02-23T17:59:54.365Z,39.80
2023-02-23T18:05:00.205Z,38.95
2023-02-23T18:07:34.612Z,44.30
2023-02-23T18:10:08.634Z,52.38
2023-02-23T18:12:44.714Z,53.00
2023-02-23T18:15:20.835Z,48.02
2023-02-23T18:17:58.687Z,49.15
2023-02-23T18:20:32.982Z,47.30
2023-02-23T18:23:08.247Z,47.93
2023-02-23T18:25:42.020Z,46.68
2023-02-23T18:28:14.747Z,49.08
2023-02-23T18:30:48.877Z,44.15
2023-02-23T18:33:24.896Z,48.80
2023-02-23T18:36:01.814Z,44.98
2023-02-23T18:38:33.979Z,46.42
2023-02-23T18:41:09.172Z,46.80
2023-02-23T18:43:41.342Z,42.03
2023-02-23T18:46:27.813Z,54.35
2023-02-23T18:49:02.762Z,63.53
2023-02-23T18:51:38.606Z,53.60
2023-02-23T18:54:15.122Z,51.20
2023-02-23T18:56:49.604Z,50.05
2023-02-23T18:59:20.216Z,47.73
2023-02-23T19:01:50.802Z,47.75
2023-02-23T19:04:21.346Z,52.43
2023-02-23T19:06:51.930Z,45.23
2023-02-23T19:09:23.759Z,49.35
2023-02-23T19:11:55.564Z,51.02
2023-02-23T19:14:47.957Z,50.58
2023-02-23T19:16:59.940Z,47.30
2023-02-23T19:19:31.710Z,43.83
2023-02-23T19:22:02.296Z,44.15
2023-02-23T19:24:32.876Z,44.75
2023-02-23T19:27:04.656Z,48.23
2023-02-23T19:29:36.374Z,49.15
2023-02-23T19:32:07.453Z,47.98
2023-02-23T19:34:40.246Z,48.52
2023-02-23T19:37:10.946Z,47.53
2023-02-23T19:39:41.478Z,49.70
2023-02-23T19:42:12.435Z,48.73
2023-02-23T19:44:43.299Z,45.78
2023-02-23T19:47:13.884Z,47.25
2023-02-23T19:49:44.446Z,48.60
2023-02-23T19:52:15.005Z,48.73
2023-02-23T19:54:45.698Z,48.98
2023-02-23T19:57:16.279Z,50.98
2023-02-23T19:59:48.328Z,53.65
2023-02-23T20:02:20.206Z,59.55
2023-02-23T20:04:51.522Z,58.15
2023-02-23T20:07:22.521Z,57.60
2023-02-23T20:09:54.442Z,56.10
2023-02-23T20:12:25.022Z,59.10
2023-02-23T20:14:57.447Z,55.95
2023-02-23T20:17:29.474Z,59.88
2023-02-23T20:20:00.097Z,57.25
2023-02-23T20:22:32.380Z,58.95
2023-02-23T20:25:04.738Z,60.20
2023-02-23T20:27:37.285Z,60.10
2023-02-23T20:30:09.209Z,55.78
2023-02-23T20:32:40.694Z,56.37
2023-02-23T20:35:14.226Z,53.78
2023-02-23T20:37:45.150Z,51.33
2023-02-23T20:40:18.755Z,48.52
2023-02-23T20:42:52.504Z,50.98
2023-02-23T20:45:26.887Z,48.00
2023-02-23T20:47:57.558Z,50.12
2023-02-23T20:50:31.486Z,53.80
2023-02-23T20:53:02.602Z,53.10
2023-02-23T20:55:34.413Z,54.80
2023-02-23T20:58:06.017Z,56.63
2023-02-23T21:00:36.636Z,51.55
2023-02-23T21:03:08.399Z,52.13
2023-02-23T21:05:43.293Z,47.08
2023-02-23T21:08:14.000Z,50.03
2023-02-23T21:10:45.287Z,50.08
2023-02-23T21:13:17.907Z,53.13
2023-02-23T21:15:59.306Z,48.98
2023-02-23T21:18:30.386Z,49.10
2023-02-23T21:21:03.646Z,49.48
2023-02-23T21:23:34.708Z,49.80
2023-02-23T21:26:07.467Z,52.30
2023-02-23T21:28:39.446Z,49.08
2023-02-23T21:31:12.768Z,50.35
2023-02-23T21:33:45.330Z,54.20
2023-02-23T21:36:17.239Z,50.35
2023-02-23T21:38:47.893Z,53.58
2023-02-23T21:41:18.919Z,56.35
2023-02-23T21:43:51.394Z,53.00
2023-02-23T21:46:23.616Z,55.50
2023-02-23T21:48:54.231Z,54.63
2023-02-23T21:51:25.897Z,53.95
2023-02-23T21:54:00.544Z,55.05
2023-02-23T21:56:32.924Z,54.80
2023-02-23T21:59:04.724Z,60.08
2023-02-23T22:01:38.298Z,57.65
2023-02-23T22:04:10.394Z,59.35
2023-02-23T22:06:44.838Z,53.85
2023-02-23T22:09:16.164Z,53.78
2023-02-23T22:11:48.764Z,56.20
2023-02-23T22:14:19.356Z,54.67
2023-02-23T22:16:50.251Z,57.90
2023-02-23T22:19:21.400Z,55.43
2023-02-23T22:21:52.006Z,56.68
2023-02-23T22:24:22.555Z,54.03
2023-02-23T22:26:56.337Z,51.70
2023-02-23T22:29:28.089Z,53.25
2023-02-23T22:31:58.848Z,58.33
2023-02-23T22:34:29.597Z,53.05
2023-02-23T22:37:00.193Z,58.35
2023-02-23T22:39:32.318Z,53.42
2023-02-23T22:42:04.509Z,50.67
2023-02-23T22:44:35.053Z,52.85
2023-02-23T22:47:06.402Z,53.92
2023-02-23T22:49:37.229Z,49.50
2023-02-23T22:52:07.841Z,56.53
2023-02-23T22:54:40.054Z,51.92
2023-02-23T22:57:10.655Z,54.60
2023-02-23T22:59:42.774Z,51.77
2023-02-23T23:02:13.386Z,56.42
2023-02-23T23:04:44.270Z,58.33
2023-02-23T23:07:15.241Z,51.73
2023-02-23T23:09:45.807Z,52.05
2023-02-23T23:12:18.006Z,55.08
2023-02-23T23:14:48.906Z,53.68
2023-02-23T23:17:20.475Z,54.83
2023-02-23T23:19:52.403Z,54.42
2023-02-23T23:22:25.651Z,55.28
2023-02-23T23:24:57.276Z,53.87
2023-02-23T23:27:27.909Z,57.93
2023-02-23T23:29:58.569Z,53.28
2023-02-23T23:32:30.736Z,52.03
2023-02-23T23:35:01.705Z,52.90
2023-02-23T23:37:32.349Z,50.48
2023-02-23T23:40:04.584Z,47.17
2023-02-23T23:42:35.284Z,50.10
2023-02-23T23:45:08.305Z,47.80
2023-02-23T23:47:38.963Z,45.75
2023-02-23T23:50:10.943Z,46.60
2023-02-23T23:52:43.833Z,47.38
2023-02-23T23:55:16.199Z,46.73
2023-02-23T23:57:46.796Z,46.63
